Terminal Aerodrome Forecast
Issued by NWS

Home | Current Version | Previous Version | Text Only | Print | Product List | Glossary On
Versions: 1 2 3 4 5 6 7 8 9 10 11 12 13 14 15 16 17 18
000
FTUS44 KTSA 202300
TAFRVS
TAF
KRVS 202320Z 2100/2124 18010KT P6SM SKC
     FM210100 17005KT P6SM SCT250
     FM210600 19005KT 5SM BR SCT250
      TEMPO 2108/2112 2SM BR
     FM211300 36005KT P6SM VCTS SCT025CB BKN050
     FM211600 01007KT P6SM SCT250
     FM211800 01010G18KT P6SM SCT250=

USA.gov is the U.S. government's official web portal to all federal, state and local government web resources and services.